Time;durP1;ratioP1;P1;durP2;ratioP2;P2;SDS_P1;SDS_P2;PMS_P1;PMS_P2;Temp;Humidity;BMP_temperature;BMP_pressure;BME280_temperature;BME280_humidity;BME280_pressure;Samples;Min_cycle;Max_cycle;Signal;HPM_P1;HPM_P2
2020/12/29 00:00:21;;;;;;;3.60;1.50;;;;;;;;;;662074;210;914918;-67
2020/12/29 00:02:46;;;;;;;2.40;1.20;;;;;;;;;;656367;210;918882;-69
2020/12/29 00:05:12;;;;;;;2.20;1.47;;;;;;;;;;658391;209;919430;-67
2020/12/29 00:07:38;;;;;;;2.20;1.48;;;;;;;;;;658233;209;967262;-66
2020/12/29 00:10:04;;;;;;;2.00;1.33;;;;;;;;;;655865;213;915544;-67
2020/12/29 00:12:30;;;;;;;2.40;1.40;;;;;;;;;;654009;213;919319;-67
2020/12/29 00:14:56;;;;;;;2.37;1.60;;;;;;;;;;650407;212;1272431;-69
2020/12/29 00:17:22;;;;;;;3.00;1.50;;;;;;;;;;658830;213;915582;-68
2020/12/29 00:19:48;;;;;;;2.63;1.57;;;;;;;;;;652340;212;915938;-68
2020/12/29 00:22:14;;;;;;;2.40;1.50;;;;;;;;;;654439;212;922376;-68
2020/12/29 00:24:39;;;;;;;2.73;1.60;;;;;;;;;;656494;211;916040;-67
2020/12/29 00:27:05;;;;;;;2.60;1.20;;;;;;;;;;655676;214;916184;-67
2020/12/29 00:29:31;;;;;;;2.50;1.40;;;;;;;;;;652623;212;916570;-68
2020/12/29 00:31:57;;;;;;;2.77;1.60;;;;;;;;;;658523;213;917786;-68
2020/12/29 00:34:23;;;;;;;2.30;1.70;;;;;;;;;;651134;212;919477;-68
2020/12/29 00:36:49;;;;;;;2.47;1.20;;;;;;;;;;652611;212;924849;-67
2020/12/29 00:39:15;;;;;;;2.95;1.70;;;;;;;;;;651389;211;918480;-67
2020/12/29 00:41:40;;;;;;;2.42;1.33;;;;;;;;;;659606;212;634181;-68
2020/12/29 00:44:06;;;;;;;3.00;1.40;;;;;;;;;;657784;213;630502;-68
2020/12/29 00:46:32;;;;;;;2.40;1.60;;;;;;;;;;657412;211;623581;-68
2020/12/29 00:48:58;;;;;;;2.63;1.37;;;;;;;;;;659869;213;626528;-68
2020/12/29 00:51:24;;;;;;;3.03;1.40;;;;;;;;;;654431;213;1020709;-68
2020/12/29 00:53:50;;;;;;;1.85;1.20;;;;;;;;;;655182;213;917260;-67
2020/12/29 00:56:16;;;;;;;2.27;1.40;;;;;;;;;;657723;213;915717;-67
2020/12/29 00:58:42;;;;;;;3.17;1.53;;;;;;;;;;654875;213;915182;-68
2020/12/29 01:01:07;;;;;;;1.93;1.33;;;;;;;;;;632819;212;4493897;-67
2020/12/29 01:03:33;;;;;;;1.97;1.10;;;;;;;;;;659740;212;932036;-67
2020/12/29 01:05:59;;;;;;;2.83;1.50;;;;;;;;;;653473;212;918745;-69
2020/12/29 01:08:25;;;;;;;3.93;1.80;;;;;;;;;;655267;213;919637;-69
2020/12/29 01:10:52;;;;;;;6.57;2.10;;;;;;;;;;654216;213;918686;-67
2020/12/29 01:13:18;;;;;;;4.47;1.80;;;;;;;;;;656530;213;918846;-67
2020/12/29 01:15:43;;;;;;;3.50;1.75;;;;;;;;;;654242;213;629952;-68
2020/12/29 01:18:09;;;;;;;2.97;1.60;;;;;;;;;;658435;214;658496;-66
2020/12/29 01:20:35;;;;;;;2.40;1.43;;;;;;;;;;662107;214;615219;-66
2020/12/29 01:23:01;;;;;;;2.33;1.70;;;;;;;;;;653003;212;919113;-67
2020/12/29 01:25:27;;;;;;;4.40;2.47;;;;;;;;;;654444;213;918894;-68
2020/12/29 01:27:53;;;;;;;2.50;1.30;;;;;;;;;;655572;211;919339;-67
2020/12/29 01:30:18;;;;;;;2.20;1.67;;;;;;;;;;653369;213;918149;-68
2020/12/29 01:32:44;;;;;;;2.30;1.20;;;;;;;;;;654037;211;918591;-67
2020/12/29 01:35:10;;;;;;;2.53;1.43;;;;;;;;;;658147;213;948606;-68
2020/12/29 01:37:36;;;;;;;3.97;2.40;;;;;;;;;;651681;214;919082;-68
2020/12/29 01:40:03;;;;;;;2.00;1.42;;;;;;;;;;651788;214;919053;-65
2020/12/29 01:42:29;;;;;;;4.97;2.20;;;;;;;;;;650765;212;918830;-68
2020/12/29 01:44:54;;;;;;;2.43;1.20;;;;;;;;;;653802;214;918892;-68
2020/12/29 01:47:20;;;;;;;3.10;1.93;;;;;;;;;;651807;214;920024;-68
2020/12/29 01:49:46;;;;;;;3.00;1.40;;;;;;;;;;654144;213;919081;-69
2020/12/29 01:52:12;;;;;;;1.80;1.20;;;;;;;;;;657120;214;919311;-69
2020/12/29 01:54:39;;;;;;;2.17;1.23;;;;;;;;;;657274;212;918477;-69
2020/12/29 01:57:06;;;;;;;4.83;1.10;;;;;;;;;;654771;211;918980;-67
2020/12/29 01:59:32;;;;;;;1.70;0.90;;;;;;;;;;659593;212;919186;-68
2020/12/29 02:01:58;;;;;;;3.27;1.43;;;;;;;;;;655283;212;930891;-67
2020/12/29 02:04:23;;;;;;;2.20;1.47;;;;;;;;;;651476;210;1153054;-68
2020/12/29 02:06:50;;;;;;;2.67;1.45;;;;;;;;;;658203;214;819380;-66
2020/12/29 02:09:16;;;;;;;3.63;1.77;;;;;;;;;;658348;212;624648;-67
2020/12/29 02:11:41;;;;;;;2.57;1.50;;;;;;;;;;656873;214;639658;-68
2020/12/29 02:14:08;;;;;;;6.03;5.22;;;;;;;;;;652361;214;940979;-68
2020/12/29 02:16:36;;;;;;;6.05;4.20;;;;;;;;;;656442;214;918186;-68
2020/12/29 02:19:01;;;;;;;4.33;3.90;;;;;;;;;;654702;212;915244;-68
2020/12/29 02:21:27;;;;;;;4.40;3.70;;;;;;;;;;653535;214;921037;-68
2020/12/29 02:23:53;;;;;;;4.97;3.40;;;;;;;;;;656677;212;1074874;-68
2020/12/29 02:26:19;;;;;;;2.80;1.73;;;;;;;;;;654448;212;919343;-69
2020/12/29 02:28:45;;;;;;;2.83;1.93;;;;;;;;;;653879;212;918036;-69
2020/12/29 02:31:11;;;;;;;3.07;1.53;;;;;;;;;;658772;214;918004;-68
2020/12/29 02:33:38;;;;;;;3.30;1.80;;;;;;;;;;652209;211;921597;-69
2020/12/29 02:36:04;;;;;;;3.03;1.80;;;;;;;;;;655057;213;918423;-67
2020/12/29 02:38:30;;;;;;;4.17;1.60;;;;;;;;;;654658;212;919616;-68
2020/12/29 02:40:56;;;;;;;2.15;1.30;;;;;;;;;;657737;212;918593;-69
2020/12/29 02:43:21;;;;;;;2.93;1.20;;;;;;;;;;657058;212;861868;-67
2020/12/29 02:45:47;;;;;;;3.53;1.45;;;;;;;;;;652231;214;915165;-68
2020/12/29 02:48:13;;;;;;;2.17;1.23;;;;;;;;;;660392;213;916514;-68
2020/12/29 02:50:39;;;;;;;1.97;1.10;;;;;;;;;;651787;212;915742;-68
2020/12/29 02:53:05;;;;;;;2.00;1.10;;;;;;;;;;652866;212;914572;-68
2020/12/29 02:55:31;;;;;;;2.10;1.20;;;;;;;;;;654650;214;915695;-68
2020/12/29 02:57:57;;;;;;;1.90;0.93;;;;;;;;;;652491;212;915375;-68
2020/12/29 03:00:22;;;;;;;2.00;1.00;;;;;;;;;;652150;212;918365;-68
2020/12/29 03:02:48;;;;;;;1.90;1.17;;;;;;;;;;654909;212;915335;-67
2020/12/29 03:05:14;;;;;;;1.67;0.90;;;;;;;;;;653282;211;915685;-68
2020/12/29 03:07:40;;;;;;;2.37;1.03;;;;;;;;;;654149;212;915860;-68
2020/12/29 03:10:06;;;;;;;8.67;2.50;;;;;;;;;;654326;210;916388;-69
2020/12/29 03:12:32;;;;;;;2.12;1.25;;;;;;;;;;659397;212;916414;-69
2020/12/29 03:14:58;;;;;;;2.50;1.23;;;;;;;;;;654979;212;938054;-68
2020/12/29 03:17:24;;;;;;;4.37;1.30;;;;;;;;;;652953;213;915539;-68
2020/12/29 03:19:50;;;;;;;3.70;1.20;;;;;;;;;;659038;214;1017683;-67
2020/12/29 03:22:15;;;;;;;2.30;1.20;;;;;;;;;;655562;213;918783;-67
2020/12/29 03:24:41;;;;;;;3.80;3.07;;;;;;;;;;655215;213;923121;-67
2020/12/29 03:27:07;;;;;;;2.77;1.87;;;;;;;;;;656949;212;918226;-67
2020/12/29 03:29:33;;;;;;;3.40;1.57;;;;;;;;;;654102;214;919092;-67
2020/12/29 03:31:59;;;;;;;2.35;1.50;;;;;;;;;;655005;212;919097;-68
2020/12/29 03:34:27;;;;;;;2.20;1.37;;;;;;;;;;654190;212;918119;-67
2020/12/29 03:36:51;;;;;;;2.67;1.50;;;;;;;;;;653931;210;918371;-67
2020/12/29 03:39:16;;;;;;;2.53;1.30;;;;;;;;;;652746;214;919197;-68
2020/12/29 03:41:42;;;;;;;2.53;1.50;;;;;;;;;;651668;210;918853;-68
2020/12/29 03:44:08;;;;;;;2.63;1.33;;;;;;;;;;659280;212;883583;-68
2020/12/29 03:46:34;;;;;;;2.37;1.20;;;;;;;;;;652160;214;919115;-68
2020/12/29 03:49:00;;;;;;;5.40;1.10;;;;;;;;;;655120;214;919367;-70
2020/12/29 03:51:26;;;;;;;3.05;1.00;;;;;;;;;;659463;214;918273;-69
2020/12/29 03:53:51;;;;;;;3.10;1.03;;;;;;;;;;648912;213;1746134;-69
2020/12/29 03:56:17;;;;;;;1.93;1.13;;;;;;;;;;653842;214;918940;-69
2020/12/29 03:58:43;;;;;;;3.50;1.60;;;;;;;;;;655934;214;926493;-70
2020/12/29 04:01:09;;;;;;;2.25;1.10;;;;;;;;;;655242;214;918424;-67
2020/12/29 04:03:35;;;;;;;1.77;1.10;;;;;;;;;;652028;214;919347;-70
2020/12/29 04:06:01;;;;;;;1.90;1.07;;;;;;;;;;655767;212;918321;-69
2020/12/29 04:08:26;;;;;;;1.90;1.10;;;;;;;;;;654914;214;918424;-69
2020/12/29 04:10:52;;;;;;;2.33;1.13;;;;;;;;;;653677;213;918615;-70
2020/12/29 04:13:18;;;;;;;1.40;0.70;;;;;;;;;;651479;212;918486;-68
2020/12/29 04:15:44;;;;;;;2.93;1.40;;;;;;;;;;660151;214;917863;-70
2020/12/29 04:18:10;;;;;;;2.43;1.40;;;;;;;;;;652399;214;917938;-69
2020/12/29 04:20:36;;;;;;;2.80;1.50;;;;;;;;;;655527;212;918597;-69
2020/12/29 04:23:01;;;;;;;1.90;1.20;;;;;;;;;;658158;210;918803;-69
2020/12/29 04:25:27;;;;;;;2.50;1.53;;;;;;;;;;653555;212;918978;-69
2020/12/29 04:27:54;;;;;;;4.62;2.00;;;;;;;;;;652984;212;919198;-69
2020/12/29 04:30:19;;;;;;;3.45;2.47;;;;;;;;;;658480;212;918038;-69
2020/12/29 04:32:45;;;;;;;3.03;2.13;;;;;;;;;;654371;214;918403;-69
2020/12/29 04:35:11;;;;;;;3.90;2.53;;;;;;;;;;653118;212;918493;-70
2020/12/29 04:37:37;;;;;;;6.77;3.73;;;;;;;;;;655250;214;918805;-69
2020/12/29 04:40:03;;;;;;;6.63;4.30;;;;;;;;;;653613;214;918670;-70
2020/12/29 04:42:29;;;;;;;8.40;5.80;;;;;;;;;;654721;214;919248;-70
2020/12/29 04:44:54;;;;;;;8.17;6.27;;;;;;;;;;651788;214;917959;-68
2020/12/29 04:47:20;;;;;;;9.70;6.50;;;;;;;;;;660150;214;918459;-71
2020/12/29 04:49:46;;;;;;;7.77;6.43;;;;;;;;;;653671;213;919113;-69
2020/12/29 04:52:12;;;;;;;8.83;7.30;;;;;;;;;;654831;212;918637;-70
2020/12/29 04:54:38;;;;;;;9.20;6.87;;;;;;;;;;656749;213;919786;-70
2020/12/29 04:57:04;;;;;;;11.73;7.03;;;;;;;;;;656658;214;918854;-69
2020/12/29 04:59:29;;;;;;;15.43;9.52;;;;;;;;;;651856;211;932063;-69
2020/12/29 05:01:55;;;;;;;12.80;8.73;;;;;;;;;;659018;213;920143;-70
2020/12/29 05:04:22;;;;;;;12.70;9.00;;;;;;;;;;652647;213;918155;-70
2020/12/29 05:06:48;;;;;;;14.77;9.00;;;;;;;;;;653358;213;918475;-70
2020/12/29 05:09:14;;;;;;;11.83;7.60;;;;;;;;;;654222;214;918590;-69
2020/12/29 05:11:40;;;;;;;11.40;9.07;;;;;;;;;;656575;212;919460;-70
2020/12/29 05:14:06;;;;;;;13.63;9.50;;;;;;;;;;653163;214;919272;-69
2020/12/29 05:16:36;;;;;;;20.63;11.40;;;;;;;;;;652155;212;918566;-69
2020/12/29 05:19:02;;;;;;;12.70;9.47;;;;;;;;;;658490;214;918891;-70
2020/12/29 05:21:28;;;;;;;18.03;11.07;;;;;;;;;;653238;212;1178380;-70
2020/12/29 05:23:54;;;;;;;18.30;13.20;;;;;;;;;;655926;213;918080;-70
2020/12/29 05:26:20;;;;;;;21.35;13.02;;;;;;;;;;655916;211;918487;-68
2020/12/29 05:28:46;;;;;;;22.83;14.80;;;;;;;;;;656318;214;919770;-69
2020/12/29 05:31:12;;;;;;;21.60;14.20;;;;;;;;;;651863;213;918466;-69
2020/12/29 05:33:38;;;;;;;20.08;14.23;;;;;;;;;;655715;211;918769;-69
2020/12/29 05:36:04;;;;;;;22.37;14.33;;;;;;;;;;658284;212;918786;-69
2020/12/29 05:38:30;;;;;;;22.40;14.60;;;;;;;;;;654499;213;918113;-69
2020/12/29 05:40:55;;;;;;;20.37;13.77;;;;;;;;;;651868;212;918111;-70
2020/12/29 05:43:26;;;;;;;25.20;16.27;;;;;;;;;;660354;214;918512;-69
2020/12/29 05:45:52;;;;;;;28.10;16.23;;;;;;;;;;656913;214;904223;-69
2020/12/29 05:48:18;;;;;;;23.93;15.30;;;;;;;;;;654045;213;940611;-69
2020/12/29 05:50:44;;;;;;;26.20;15.87;;;;;;;;;;654552;214;919030;-68
2020/12/29 05:53:09;;;;;;;21.10;13.60;;;;;;;;;;652377;214;918160;-70
2020/12/29 05:55:35;;;;;;;24.73;15.70;;;;;;;;;;653958;212;919027;-69
2020/12/29 05:58:02;;;;;;;19.77;14.48;;;;;;;;;;652445;213;919092;-69
2020/12/29 06:00:28;;;;;;;23.07;13.20;;;;;;;;;;659268;214;919228;-69
2020/12/29 06:02:56;;;;;;;20.50;13.23;;;;;;;;;;650989;212;1011370;-69
2020/12/29 06:05:22;;;;;;;27.90;15.60;;;;;;;;;;653888;212;918316;-69
2020/12/29 06:07:48;;;;;;;22.37;12.70;;;;;;;;;;657307;210;917429;-69
2020/12/29 06:10:14;;;;;;;25.17;13.93;;;;;;;;;;654965;213;918960;-66
2020/12/29 06:12:40;;;;;;;20.50;14.38;;;;;;;;;;650782;214;918707;-69
2020/12/29 06:15:06;;;;;;;24.23;13.90;;;;;;;;;;654907;213;921846;-68
2020/12/29 06:17:32;;;;;;;20.00;13.40;;;;;;;;;;653769;211;919399;-69
2020/12/29 06:19:57;;;;;;;24.73;14.30;;;;;;;;;;653715;210;913909;-69
2020/12/29 06:22:23;;;;;;;19.63;12.23;;;;;;;;;;651376;213;1063041;-69
2020/12/29 06:24:49;;;;;;;23.10;12.53;;;;;;;;;;657223;212;952703;-70
2020/12/29 06:27:15;;;;;;;19.73;13.13;;;;;;;;;;653037;214;919294;-69
2020/12/29 06:29:42;;;;;;;19.10;13.07;;;;;;;;;;653059;213;1020916;-69
2020/12/29 06:32:09;;;;;;;21.60;14.40;;;;;;;;;;658508;214;920396;-68
2020/12/29 06:34:35;;;;;;;20.97;14.77;;;;;;;;;;652082;213;918423;-67
2020/12/29 06:37:01;;;;;;;22.70;13.53;;;;;;;;;;653924;214;919569;-68
2020/12/29 06:39:27;;;;;;;23.67;14.37;;;;;;;;;;657802;214;918364;-69
2020/12/29 06:41:53;;;;;;;29.93;15.73;;;;;;;;;;654896;212;916329;-69
2020/12/29 06:44:18;;;;;;;22.93;15.63;;;;;;;;;;654492;211;914387;-69
2020/12/29 06:46:44;;;;;;;23.37;14.20;;;;;;;;;;655028;212;915040;-69
2020/12/29 06:49:16;;;;;;;23.62;14.57;;;;;;;;;;647644;212;2684405;-70
2020/12/29 06:51:42;;;;;;;25.93;15.90;;;;;;;;;;654457;212;913391;-69
2020/12/29 06:54:08;;;;;;;20.37;13.00;;;;;;;;;;651743;212;983644;-69
2020/12/29 06:56:34;;;;;;;22.58;14.73;;;;;;;;;;659582;213;918110;-69
2020/12/29 06:58:59;;;;;;;21.17;13.83;;;;;;;;;;654337;213;919717;-69
2020/12/29 07:01:25;;;;;;;21.37;14.63;;;;;;;;;;655746;213;917278;-70
2020/12/29 07:03:57;;;;;;;26.87;16.35;;;;;;;;;;653611;212;919684;-69
2020/12/29 07:06:23;;;;;;;19.05;12.75;;;;;;;;;;656155;214;918116;-69
2020/12/29 07:08:49;;;;;;;19.97;13.43;;;;;;;;;;654721;214;918892;-69
2020/12/29 07:11:15;;;;;;;20.23;13.48;;;;;;;;;;648782;212;1740276;-68
2020/12/29 07:13:40;;;;;;;18.37;12.97;;;;;;;;;;656621;214;918996;-69
2020/12/29 07:16:06;;;;;;;20.90;14.20;;;;;;;;;;651687;212;931580;-69
2020/12/29 07:18:32;;;;;;;20.33;12.70;;;;;;;;;;655332;212;917755;-69
2020/12/29 07:20:58;;;;;;;18.45;10.93;;;;;;;;;;657313;211;916010;-69
2020/12/29 07:23:26;;;;;;;18.30;10.13;;;;;;;;;;654949;214;920084;-69
2020/12/29 07:25:52;;;;;;;12.60;9.40;;;;;;;;;;651469;213;918148;-70
2020/12/29 07:28:24;;;;;;;17.15;11.52;;;;;;;;;;655192;214;917802;-69
2020/12/29 07:30:50;;;;;;;15.17;8.93;;;;;;;;;;657112;212;918752;-69
2020/12/29 07:33:16;;;;;;;18.23;12.10;;;;;;;;;;657164;214;717847;-70
2020/12/29 07:35:42;;;;;;;14.90;10.03;;;;;;;;;;652897;212;918184;-69
2020/12/29 07:38:13;;;;;;;10.48;7.57;;;;;;;;;;655239;213;917532;-69
2020/12/29 07:40:39;;;;;;;13.43;10.30;;;;;;;;;;653774;214;947393;-69
2020/12/29 07:43:04;;;;;;;13.60;9.50;;;;;;;;;;653810;214;920633;-69
2020/12/29 07:45:30;;;;;;;15.97;10.17;;;;;;;;;;657642;213;627692;-69
2020/12/29 07:47:56;;;;;;;14.77;9.40;;;;;;;;;;656582;212;919843;-69
2020/12/29 07:50:22;;;;;;;14.53;7.90;;;;;;;;;;655570;212;915196;-69
2020/12/29 07:52:48;;;;;;;13.27;7.30;;;;;;;;;;652253;212;915869;-69
2020/12/29 07:55:14;;;;;;;14.03;8.20;;;;;;;;;;660106;213;915004;-69
2020/12/29 07:57:40;;;;;;;14.00;9.37;;;;;;;;;;657848;212;635129;-67
2020/12/29 08:00:07;;;;;;;11.00;7.30;;;;;;;;;;654450;212;918937;-70
2020/12/29 08:02:32;;;;;;;11.10;7.93;;;;;;;;;;654390;213;917980;-69
2020/12/29 08:04:59;;;;;;;12.23;7.70;;;;;;;;;;659290;214;918761;-69
2020/12/29 08:07:25;;;;;;;13.33;8.40;;;;;;;;;;650781;212;934668;-69
2020/12/29 08:09:51;;;;;;;12.03;8.43;;;;;;;;;;658333;214;620119;-68
2020/12/29 08:12:16;;;;;;;16.80;8.90;;;;;;;;;;659955;212;628113;-69
2020/12/29 08:14:42;;;;;;;13.90;8.40;;;;;;;;;;656038;214;894504;-68
2020/12/29 08:17:08;;;;;;;8.70;6.50;;;;;;;;;;652527;214;920131;-68
2020/12/29 08:19:34;;;;;;;8.87;5.23;;;;;;;;;;657845;212;916258;-68
2020/12/29 08:22:04;;;;;;;9.00;6.80;;;;;;;;;;652351;213;915925;-68
2020/12/29 08:24:30;;;;;;;10.70;6.63;;;;;;;;;;654067;212;913951;-68
2020/12/29 08:26:56;;;;;;;8.67;5.67;;;;;;;;;;653218;212;929384;-68
2020/12/29 08:29:21;;;;;;;10.83;6.20;;;;;;;;;;656474;212;921452;-69
2020/12/29 08:31:47;;;;;;;8.80;6.03;;;;;;;;;;652774;212;919535;-68
2020/12/29 08:34:13;;;;;;;8.83;5.90;;;;;;;;;;651218;212;919612;-68
2020/12/29 08:36:39;;;;;;;8.00;5.87;;;;;;;;;;658399;214;918983;-68
2020/12/29 08:39:05;;;;;;;8.33;5.50;;;;;;;;;;649192;212;1778744;-67
2020/12/29 08:41:31;;;;;;;7.93;5.57;;;;;;;;;;653315;213;916831;-67
2020/12/29 08:43:57;;;;;;;10.10;5.60;;;;;;;;;;655674;211;915124;-69
2020/12/29 08:46:23;;;;;;;7.78;5.10;;;;;;;;;;653126;213;919271;-67
2020/12/29 08:48:55;;;;;;;13.63;5.50;;;;;;;;;;652766;212;915306;-68
2020/12/29 08:51:21;;;;;;;6.83;4.80;;;;;;;;;;652900;214;918883;-68
2020/12/29 08:53:46;;;;;;;6.70;5.23;;;;;;;;;;654932;214;1020584;-68
2020/12/29 08:56:18;;;;;;;6.87;4.67;;;;;;;;;;654956;214;918781;-69
2020/12/29 08:58:44;;;;;;;6.47;4.53;;;;;;;;;;650761;213;919742;-68
2020/12/29 09:01:10;;;;;;;6.63;4.67;;;;;;;;;;657178;213;918467;-68
2020/12/29 09:03:36;;;;;;;6.97;4.70;;;;;;;;;;655025;212;911516;-68
2020/12/29 09:06:02;;;;;;;7.90;4.77;;;;;;;;;;657218;212;918492;-68
2020/12/29 09:08:28;;;;;;;5.07;3.70;;;;;;;;;;655979;212;918841;-68
2020/12/29 09:10:59;;;;;;;6.70;3.73;;;;;;;;;;659443;213;918869;-67
2020/12/29 09:13:25;;;;;;;7.67;3.90;;;;;;;;;;654839;213;918940;-68
2020/12/29 09:15:51;;;;;;;6.13;3.20;;;;;;;;;;652003;212;918905;-67
2020/12/29 09:18:17;;;;;;;4.00;2.90;;;;;;;;;;658702;214;918891;-68
2020/12/29 09:20:43;;;;;;;4.90;3.20;;;;;;;;;;652727;210;918492;-67
2020/12/29 09:23:10;;;;;;;5.43;2.93;;;;;;;;;;654234;214;921405;-67
2020/12/29 09:25:36;;;;;;;4.40;2.13;;;;;;;;;;653341;210;919368;-66
2020/12/29 09:28:24;;;;;;;4.80;3.10;;;;;;;;;;656955;213;918316;-67
2020/12/29 09:30:55;;;;;;;4.53;2.27;;;;;;;;;;657576;210;918801;-67
2020/12/29 09:33:21;;;;;;;3.37;2.23;;;;;;;;;;652821;213;918395;-67
2020/12/29 09:35:46;;;;;;;3.30;2.00;;;;;;;;;;652274;213;919090;-66
2020/12/29 09:38:14;;;;;;;3.22;1.90;;;;;;;;;;657547;213;919332;-66
2020/12/29 09:40:39;;;;;;;4.63;2.00;;;;;;;;;;654908;212;916291;-66
2020/12/29 09:43:05;;;;;;;3.90;2.12;;;;;;;;;;655744;213;916880;-66
2020/12/29 09:45:31;;;;;;;2.50;1.80;;;;;;;;;;651765;214;918395;-66
2020/12/29 09:47:56;;;;;;;2.60;1.60;;;;;;;;;;659751;212;912577;-66
2020/12/29 09:50:22;;;;;;;2.85;1.48;;;;;;;;;;653864;212;922523;-67
2020/12/29 09:52:48;;;;;;;3.03;2.10;;;;;;;;;;652790;212;916005;-66
2020/12/29 09:55:14;;;;;;;2.55;1.40;;;;;;;;;;658076;213;919035;-66
2020/12/29 09:57:40;;;;;;;2.83;1.70;;;;;;;;;;652079;213;918920;-65
2020/12/29 10:00:06;;;;;;;2.80;1.73;;;;;;;;;;654516;212;918229;-66
2020/12/29 10:02:32;;;;;;;4.17;2.07;;;;;;;;;;656009;213;989017;-66
2020/12/29 10:04:58;;;;;;;4.30;2.00;;;;;;;;;;653201;214;919104;-66
2020/12/29 10:07:23;;;;;;;4.00;1.97;;;;;;;;;;651053;211;919174;-66
2020/12/29 10:09:49;;;;;;;3.00;1.80;;;;;;;;;;653953;214;919895;-66
2020/12/29 10:12:15;;;;;;;2.40;1.40;;;;;;;;;;653937;211;870844;-66
2020/12/29 10:14:41;;;;;;;2.13;1.20;;;;;;;;;;654697;212;916335;-66
2020/12/29 10:17:07;;;;;;;2.57;1.67;;;;;;;;;;651383;214;920303;-66
2020/12/29 10:19:33;;;;;;;5.37;2.80;;;;;;;;;;661766;212;919240;-67
2020/12/29 10:21:58;;;;;;;12.83;7.23;;;;;;;;;;652810;212;918830;-67
2020/12/29 10:24:24;;;;;;;25.50;11.60;;;;;;;;;;655994;212;919354;-67
2020/12/29 10:26:50;;;;;;;5.27;3.80;;;;;;;;;;658101;213;919113;-69
2020/12/29 10:29:16;;;;;;;9.10;5.63;;;;;;;;;;658485;212;636864;-67
2020/12/29 10:31:42;;;;;;;21.20;12.93;;;;;;;;;;658100;213;631741;-66
2020/12/29 10:34:08;;;;;;;19.00;12.20;;;;;;;;;;659353;212;626114;-66
2020/12/29 10:36:34;;;;;;;33.83;23.70;;;;;;;;;;656127;212;915599;-66
2020/12/29 10:38:59;;;;;;;8.63;4.80;;;;;;;;;;660803;209;614117;-67
2020/12/29 10:41:28;;;;;;;11.03;7.07;;;;;;;;;;657045;212;916593;-66
2020/12/29 10:43:54;;;;;;;4.90;4.07;;;;;;;;;;655392;211;915102;-66
2020/12/29 10:46:20;;;;;;;3.83;2.50;;;;;;;;;;652289;214;919899;-66
2020/12/29 10:48:46;;;;;;;2.62;1.50;;;;;;;;;;652505;210;917584;-67
2020/12/29 10:51:11;;;;;;;3.40;2.13;;;;;;;;;;658927;214;944043;-67
2020/12/29 10:53:37;;;;;;;4.40;2.27;;;;;;;;;;652615;214;919025;-66
2020/12/29 10:56:03;;;;;;;10.60;6.30;;;;;;;;;;654564;213;919834;-66
2020/12/29 10:58:29;;;;;;;6.20;3.60;;;;;;;;;;656897;214;1021476;-67
2020/12/29 11:00:55;;;;;;;5.83;3.47;;;;;;;;;;653501;214;919742;-67
2020/12/29 11:03:20;;;;;;;5.77;3.60;;;;;;;;;;651088;213;952093;-67
2020/12/29 11:05:46;;;;;;;6.57;3.53;;;;;;;;;;655470;214;918752;-65
2020/12/29 11:08:12;;;;;;;5.80;3.70;;;;;;;;;;656496;213;918504;-66
2020/12/29 11:10:38;;;;;;;9.03;5.03;;;;;;;;;;651862;211;1096620;-66
2020/12/29 11:13:04;;;;;;;7.93;5.40;;;;;;;;;;654179;213;944400;-66
2020/12/29 11:15:30;;;;;;;3.50;2.40;;;;;;;;;;657351;212;866145;-65
2020/12/29 11:17:56;;;;;;;3.50;2.07;;;;;;;;;;656684;212;918870;-66
2020/12/29 11:20:22;;;;;;;13.43;8.80;;;;;;;;;;653570;212;899632;-66
2020/12/29 11:22:48;;;;;;;12.80;7.93;;;;;;;;;;660109;212;823714;-65
2020/12/29 11:25:14;;;;;;;10.57;6.93;;;;;;;;;;655779;212;628753;-66
2020/12/29 11:27:39;;;;;;;16.63;13.13;;;;;;;;;;650634;214;923758;-66
2020/12/29 11:30:05;;;;;;;15.73;10.03;;;;;;;;;;658386;211;883908;-66
2020/12/29 11:32:31;;;;;;;5.97;4.07;;;;;;;;;;655406;213;930807;-66
2020/12/29 11:34:57;;;;;;;7.47;4.60;;;;;;;;;;652454;213;921119;-67
2020/12/29 11:37:23;;;;;;;4.60;3.00;;;;;;;;;;655686;214;905718;-67
2020/12/29 11:39:49;;;;;;;4.90;3.43;;;;;;;;;;653782;214;919426;-63
2020/12/29 11:42:15;;;;;;;3.57;2.60;;;;;;;;;;647289;213;918044;-66
2020/12/29 11:44:40;;;;;;;4.57;3.20;;;;;;;;;;654856;214;919004;-65
2020/12/29 11:47:06;;;;;;;4.90;2.92;;;;;;;;;;657206;213;917854;-66
2020/12/29 11:49:32;;;;;;;7.97;3.57;;;;;;;;;;655331;214;919019;-67
2020/12/29 11:51:58;;;;;;;4.43;2.90;;;;;;;;;;651316;212;1169626;-66
2020/12/29 11:54:24;;;;;;;6.15;3.58;;;;;;;;;;658561;214;912324;-67
2020/12/29 11:56:50;;;;;;;4.20;3.10;;;;;;;;;;653250;214;920610;-67
2020/12/29 11:59:16;;;;;;;7.80;5.30;;;;;;;;;;654866;213;919328;-67
2020/12/29 12:01:41;;;;;;;4.90;3.43;;;;;;;;;;655519;213;915347;-66
2020/12/29 12:04:07;;;;;;;5.10;2.70;;;;;;;;;;653643;212;925672;-66
2020/12/29 12:06:34;;;;;;;3.77;2.80;;;;;;;;;;652771;212;920074;-66
2020/12/29 12:09:00;;;;;;;6.30;3.40;;;;;;;;;;653839;214;915500;-65
2020/12/29 12:11:28;;;;;;;19.10;9.77;;;;;;;;;;659436;212;623724;-67
2020/12/29 12:13:52;;;;;;;7.77;4.70;;;;;;;;;;652952;213;919273;-66
2020/12/29 12:16:17;;;;;;;15.30;7.37;;;;;;;;;;653402;213;915829;-66
2020/12/29 12:18:43;;;;;;;7.32;3.90;;;;;;;;;;658272;214;919576;-67
2020/12/29 12:21:09;;;;;;;5.93;3.57;;;;;;;;;;655830;212;918998;-66
2020/12/29 12:23:35;;;;;;;4.50;3.10;;;;;;;;;;653001;214;919043;-66
2020/12/29 12:26:01;;;;;;;8.60;3.53;;;;;;;;;;657850;214;919001;-66
2020/12/29 12:28:27;;;;;;;6.27;3.30;;;;;;;;;;655174;214;618267;-66
2020/12/29 12:30:53;;;;;;;4.10;2.40;;;;;;;;;;654164;213;918445;-66
2020/12/29 12:33:19;;;;;;;13.10;6.87;;;;;;;;;;658515;213;631152;-67
2020/12/29 12:35:44;;;;;;;4.90;3.10;;;;;;;;;;652322;213;918852;-66
2020/12/29 12:38:10;;;;;;;5.15;2.92;;;;;;;;;;653174;211;891474;-66
2020/12/29 12:40:36;;;;;;;4.27;2.87;;;;;;;;;;654230;213;918661;-66
2020/12/29 12:43:02;;;;;;;3.60;2.53;;;;;;;;;;659041;210;935818;-67
2020/12/29 12:45:28;;;;;;;5.23;3.30;;;;;;;;;;654611;213;919613;-67
2020/12/29 12:47:54;;;;;;;5.60;3.17;;;;;;;;;;656306;210;918336;-65
2020/12/29 12:50:21;;;;;;;4.90;3.20;;;;;;;;;;659378;213;917428;-67
2020/12/29 12:52:45;;;;;;;5.50;3.07;;;;;;;;;;654889;212;918263;-67
2020/12/29 12:55:11;;;;;;;4.77;3.30;;;;;;;;;;652292;214;918946;-69
2020/12/29 12:57:37;;;;;;;5.23;3.40;;;;;;;;;;659232;212;917102;-69
2020/12/29 13:00:03;;;;;;;4.80;3.37;;;;;;;;;;653705;212;918798;-67
2020/12/29 13:02:29;;;;;;;4.83;3.23;;;;;;;;;;652947;213;919576;-66
2020/12/29 13:04:54;;;;;;;5.40;3.10;;;;;;;;;;651349;210;919360;-66
2020/12/29 13:07:20;;;;;;;3.67;3.00;;;;;;;;;;658949;211;918310;-67
2020/12/29 13:09:46;;;;;;;6.60;3.50;;;;;;;;;;651063;213;919241;-67
2020/12/29 13:12:12;;;;;;;4.20;2.77;;;;;;;;;;653697;214;918251;-66
2020/12/29 13:14:38;;;;;;;4.60;3.20;;;;;;;;;;656482;214;919202;-67
2020/12/29 13:17:04;;;;;;;5.17;3.00;;;;;;;;;;654577;214;919020;-66
2020/12/29 13:19:29;;;;;;;6.47;3.40;;;;;;;;;;638311;211;3748703;-67
2020/12/29 13:21:55;;;;;;;5.67;3.20;;;;;;;;;;656278;214;918757;-66
2020/12/29 13:24:21;;;;;;;8.37;3.97;;;;;;;;;;652796;213;919363;-67
2020/12/29 13:26:48;;;;;;;5.25;3.40;;;;;;;;;;653948;214;919717;-66
2020/12/29 13:29:14;;;;;;;7.37;4.13;;;;;;;;;;657211;211;917921;-66
2020/12/29 13:31:40;;;;;;;9.30;4.40;;;;;;;;;;654037;213;919643;-67
2020/12/29 13:34:07;;;;;;;6.43;3.40;;;;;;;;;;652400;213;918795;-66
2020/12/29 13:36:33;;;;;;;10.63;5.63;;;;;;;;;;653730;214;918984;-67
2020/12/29 13:38:59;;;;;;;7.40;4.70;;;;;;;;;;657633;214;936976;-67
2020/12/29 13:41:25;;;;;;;10.03;4.83;;;;;;;;;;651079;212;918585;-67
2020/12/29 13:43:50;;;;;;;5.67;4.00;;;;;;;;;;653999;214;918805;-67
2020/12/29 13:46:16;;;;;;;5.67;3.70;;;;;;;;;;656233;211;977914;-66
2020/12/29 13:48:42;;;;;;;5.13;3.33;;;;;;;;;;654843;214;918927;-67
2020/12/29 13:51:08;;;;;;;4.93;3.28;;;;;;;;;;652452;213;919028;-66
2020/12/29 13:53:34;;;;;;;5.73;3.37;;;;;;;;;;659599;212;917722;-67
2020/12/29 13:56:00;;;;;;;7.23;3.00;;;;;;;;;;653976;210;939812;-67
2020/12/29 13:58:25;;;;;;;5.05;2.95;;;;;;;;;;654407;213;919269;-67
2020/12/29 14:00:51;;;;;;;7.10;3.60;;;;;;;;;;652857;212;919076;-66
2020/12/29 14:03:17;;;;;;;6.60;3.70;;;;;;;;;;656266;212;921402;-66
2020/12/29 14:05:43;;;;;;;6.17;3.73;;;;;;;;;;651892;213;918894;-67
2020/12/29 14:08:09;;;;;;;6.90;3.60;;;;;;;;;;653656;212;918203;-66
2020/12/29 14:10:35;;;;;;;5.90;3.33;;;;;;;;;;659698;213;713388;-67
2020/12/29 14:13:01;;;;;;;8.50;3.80;;;;;;;;;;655221;212;918287;-67
2020/12/29 14:15:26;;;;;;;6.37;3.70;;;;;;;;;;653886;212;918839;-67